Time;durP1;ratioP1;P1;durP2;ratioP2;P2;SDS_P1;SDS_P2;PMS_P1;PMS_P2;Temp;Humidity;BMP_temperature;BMP_pressure;BME280_temperature;BME280_humidity;BME280_pressure;Samples;Min_cycle;Max_cycle;Signal;HPM_P1;HPM_P2
2022/10/15 00:02:06;;;;;;;0.93;0.90;;;20.00;68.50;;;;;;4956370;28;20043;-51
2022/10/15 00:04:32;;;;;;;0.90;0.80;;;20.00;68.60;;;;;;4953692;28;20138;-49
2022/10/15 00:06:58;;;;;;;1.23;0.80;;;20.10;68.80;;;;;;4955224;28;20594;-40
2022/10/15 00:09:23;;;;;;;0.77;0.77;;;20.00;68.60;;;;;;4952907;28;20071;-49
2022/10/15 00:11:49;;;;;;;0.88;0.80;;;20.00;68.80;;;;;;4952340;28;20515;-56
2022/10/15 00:14:14;;;;;;;0.80;0.80;;;20.00;69.40;;;;;;4953704;28;20050;-56
2022/10/15 00:16:40;;;;;;;1.20;0.93;;;20.00;68.80;;;;;;4952740;28;20066;-49
2022/10/15 00:19:05;;;;;;;1.45;1.00;;;20.00;68.70;;;;;;4951197;28;20576;-40
2022/10/15 00:21:31;;;;;;;0.80;0.75;;;20.00;68.90;;;;;;4954995;28;20068;-47
2022/10/15 00:23:56;;;;;;;0.82;0.80;;;20.00;69.00;;;;;;4952344;28;20142;-49
2022/10/15 00:26:24;;;;;;;1.15;0.70;;;20.00;69.10;;;;;;4951692;28;20058;-55
2022/10/15 00:28:50;;;;;;;0.57;0.57;;;20.00;68.70;;;;;;4954939;28;20058;-54
2022/10/15 00:31:16;;;;;;;0.95;0.65;;;20.00;69.00;;;;;;4974327;28;20093;-58
2022/10/15 00:33:42;;;;;;;0.57;0.57;;;20.00;69.30;;;;;;4956931;28;20082;-56
2022/10/15 00:36:12;;;;;;;0.80;0.80;;;19.90;68.80;;;;;;4959814;28;20042;-50
2022/10/15 00:38:37;;;;;;;1.00;0.82;;;19.90;69.00;;;;;;4956227;28;20055;-51
2022/10/15 00:41:03;;;;;;;0.52;0.52;;;19.90;69.00;;;;;;4959323;28;20536;-54
2022/10/15 00:43:44;;;;;;;0.85;0.70;;;19.90;69.30;;;;;;4956132;28;20082;-58
2022/10/15 00:46:26;;;;;;;0.80;0.80;;;19.90;68.80;;;;;;4959897;28;20050;-49
2022/10/15 00:48:57;;;;;;;0.65;0.65;;;19.90;68.70;;;;;;4953828;28;20073;-58
2022/10/15 00:51:24;;;;;;;0.82;0.82;;;20.00;69.30;;;;;;4972723;28;20060;-58
2022/10/15 00:53:50;;;;;;;0.80;0.80;;;19.90;68.70;;;;;;4951799;28;20391;-56
2022/10/15 00:56:17;;;;;;;0.88;0.80;;;19.90;68.70;;;;;;4952307;28;20549;-59
2022/10/15 00:58:43;;;;;;;0.90;0.90;;;19.90;68.80;;;;;;4939256;28;20075;-60
2022/10/15 01:01:08;;;;;;;0.68;0.68;;;19.90;69.10;;;;;;4951512;28;20129;-59
2022/10/15 01:03:34;;;;;;;0.88;0.88;;;19.90;68.90;;;;;;4974961;28;20051;-56
2022/10/15 01:06:00;;;;;;;0.60;0.60;;;19.90;69.60;;;;;;4953368;28;20042;-53
2022/10/15 01:08:25;;;;;;;0.60;0.60;;;20.00;69.10;;;;;;4956974;28;20462;-55
2022/10/15 01:11:12;;;;;;;0.55;0.55;;;19.90;68.70;;;;;;4958397;28;20079;-56
2022/10/15 01:14:21;;;;;;;0.80;0.80;;;19.90;69.20;;;;;;4953627;28;20070;-59
2022/10/15 01:16:53;;;;;;;0.60;0.60;;;19.90;68.90;;;;;;4960248;28;20047;-58
2022/10/15 01:19:40;;;;;;;0.70;0.60;;;19.90;69.50;;;;;;4975605;28;20142;-61
2022/10/15 01:22:17;;;;;;;0.52;0.52;;;19.90;69.90;;;;;;4957180;28;20050;-55
2022/10/15 01:25:02;;;;;;;0.50;0.50;;;19.90;69.40;;;;;;4954613;28;20055;-59
2022/10/15 01:27:44;;;;;;;0.70;0.70;;;19.80;69.50;;;;;;4953355;28;20059;-57
2022/10/15 01:30:33;;;;;;;0.60;0.60;;;19.90;69.40;;;;;;4960504;28;20079;-57
2022/10/15 01:33:23;;;;;;;0.70;0.60;;;19.90;69.70;;;;;;4954606;28;20134;-53
2022/10/15 01:35:50;;;;;;;0.77;0.77;;;19.90;69.80;;;;;;4938737;28;20058;-56
2022/10/15 01:38:33;;;;;;;0.70;0.60;;;19.90;69.90;;;;;;4936688;28;20050;-54
2022/10/15 01:41:08;;;;;;;0.50;0.50;;;19.90;69.50;;;;;;4953406;28;20069;-60
2022/10/15 01:43:44;;;;;;;0.43;0.43;;;19.90;70.10;;;;;;4953968;28;20055;-56
2022/10/15 01:46:13;;;;;;;0.57;0.57;;;19.90;69.70;;;;;;4954411;28;20489;-47
2022/10/15 01:48:38;;;;;;;0.57;0.57;;;19.90;69.80;;;;;;4937263;28;20054;-55
2022/10/15 01:51:04;;;;;;;0.45;0.45;;;19.80;71.50;;;;;;4936453;28;20414;-55
2022/10/15 01:53:33;;;;;;;0.60;0.60;;;19.80;70.30;;;;;;4952229;28;20066;-55
2022/10/15 01:56:01;;;;;;;2.08;0.80;;;19.80;70.70;;;;;;4939033;28;20045;-61
2022/10/15 01:58:26;;;;;;;0.50;0.50;;;19.80;70.40;;;;;;4938474;28;20066;-53
2022/10/15 02:00:53;;;;;;;0.50;0.50;;;19.80;70.50;;;;;;4956031;28;20035;-56
2022/10/15 02:03:19;;;;;;;0.40;0.40;;;19.80;69.80;;;;;;4967058;28;20042;-57
2022/10/15 02:05:57;;;;;;;0.70;0.60;;;19.80;70.30;;;;;;4954263;28;20085;-59
2022/10/15 02:08:32;;;;;;;0.50;0.50;;;19.90;70.30;;;;;;4954151;28;20426;-58
2022/10/15 02:11:08;;;;;;;0.40;0.40;;;19.80;70.50;;;;;;4952471;28;20549;-58
2022/10/15 02:13:45;;;;;;;0.47;0.47;;;19.80;70.80;;;;;;4938158;28;20121;-58
2022/10/15 02:16:20;;;;;;;0.57;0.57;;;19.80;70.10;;;;;;4952914;28;20036;-60
2022/10/15 02:18:55;;;;;;;0.50;0.50;;;19.80;69.90;;;;;;4954966;28;20047;-60
2022/10/15 02:21:51;;;;;;;0.40;0.40;;;19.80;69.90;;;;;;4937940;28;20047;-58
2022/10/15 02:24:24;;;;;;;0.68;0.68;;;19.80;69.70;;;;;;4949924;28;20048;-59
2022/10/15 02:26:51;;;;;;;1.02;0.43;;;19.90;69.20;;;;;;4954473;28;20039;-58
2022/10/15 02:29:19;;;;;;;0.40;0.40;;;19.90;70.40;;;;;;4968748;28;20046;-58
2022/10/15 02:31:44;;;;;;;0.47;0.47;;;19.90;69.80;;;;;;4938558;28;20058;-57
2022/10/15 02:34:11;;;;;;;0.40;0.40;;;19.90;69.40;;;;;;4986622;28;20497;-60
2022/10/15 02:36:38;;;;;;;0.50;0.50;;;19.90;69.50;;;;;;4964919;28;20035;-59
2022/10/15 02:39:04;;;;;;;0.50;0.50;;;19.90;69.20;;;;;;4953136;28;20062;-57
2022/10/15 02:41:29;;;;;;;0.55;0.55;;;19.90;69.00;;;;;;4954327;28;20501;-57
2022/10/15 02:43:55;;;;;;;0.30;0.30;;;19.90;69.60;;;;;;4958473;28;20056;-59
2022/10/15 02:46:20;;;;;;;0.40;0.40;;;19.90;69.20;;;;;;4950228;28;20109;-52
2022/10/15 02:48:46;;;;;;;0.60;0.60;;;19.90;70.40;;;;;;4955782;28;20469;-57
2022/10/15 02:51:11;;;;;;;0.50;0.50;;;19.90;69.20;;;;;;4952030;28;20039;-58
2022/10/15 02:53:37;;;;;;;0.40;0.40;;;19.90;69.20;;;;;;4954970;28;20577;-57
2022/10/15 02:56:03;;;;;;;0.50;0.47;;;19.90;69.20;;;;;;4953161;28;20471;-58
2022/10/15 02:58:29;;;;;;;0.35;0.35;;;19.90;69.20;;;;;;4955711;28;20066;-53
2022/10/15 03:00:55;;;;;;;0.40;0.30;;;19.90;69.20;;;;;;4949995;28;20054;-57
2022/10/15 03:03:21;;;;;;;0.70;0.50;;;19.90;69.30;;;;;;4953099;28;20533;-59
2022/10/15 03:05:46;;;;;;;0.40;0.40;;;19.90;69.70;;;;;;4602882;28;10000296;-62
2022/10/15 03:08:12;;;;;;;0.40;0.40;;;19.90;69.80;;;;;;4949875;28;20031;-58
2022/10/15 03:10:38;;;;;;;0.50;0.40;;;19.90;70.00;;;;;;4948842;28;20099;-60
2022/10/15 03:13:04;;;;;;;0.20;0.20;;;19.90;70.30;;;;;;4950440;28;20054;-61
2022/10/15 03:15:30;;;;;;;0.30;0.30;;;19.90;70.00;;;;;;4953321;28;20058;-59
2022/10/15 03:17:55;;;;;;;0.40;0.40;;;19.90;70.00;;;;;;4950129;28;20469;-46
2022/10/15 03:20:21;;;;;;;0.20;0.20;;;19.90;70.00;;;;;;4950749;28;20046;-60
2022/10/15 03:22:46;;;;;;;0.20;0.20;;;20.00;69.60;;;;;;4951419;28;20058;-57
2022/10/15 03:25:12;;;;;;;0.20;0.20;;;20.00;69.00;;;;;;4950280;28;20057;-60
2022/10/15 03:27:38;;;;;;;0.30;0.30;;;20.00;69.30;;;;;;4950476;28;20528;-59
2022/10/15 03:30:04;;;;;;;0.38;0.35;;;20.00;69.40;;;;;;4952019;28;20055;-58
2022/10/15 03:32:29;;;;;;;0.30;0.30;;;20.00;69.40;;;;;;4949464;28;20043;-60
2022/10/15 03:34:55;;;;;;;0.45;0.45;;;19.90;70.30;;;;;;4950160;28;20411;-54
2022/10/15 03:37:20;;;;;;;0.50;0.40;;;20.00;69.20;;;;;;4952637;28;20126;-58
2022/10/15 03:39:46;;;;;;;0.52;0.52;;;20.00;69.30;;;;;;4950601;28;20059;-60
2022/10/15 03:42:11;;;;;;;0.32;0.32;;;20.00;69.10;;;;;;4948935;28;20053;-62
2022/10/15 03:44:37;;;;;;;0.52;0.52;;;20.00;69.50;;;;;;4952319;28;20406;-60
2022/10/15 03:47:02;;;;;;;0.40;0.35;;;20.00;69.20;;;;;;4947530;28;20070;-58
2022/10/15 03:49:28;;;;;;;0.20;0.20;;;20.00;69.20;;;;;;4949316;28;20292;-50
2022/10/15 03:51:54;;;;;;;0.30;0.28;;;20.00;69.30;;;;;;4949400;28;20574;-47
2022/10/15 03:54:19;;;;;;;0.28;0.28;;;20.00;69.50;;;;;;4949811;28;20049;-51
2022/10/15 03:56:45;;;;;;;0.30;0.30;;;20.00;69.70;;;;;;4951218;28;20601;-44
2022/10/15 03:59:10;;;;;;;0.40;0.40;;;20.00;69.60;;;;;;4946741;28;20043;-54
2022/10/15 04:01:36;;;;;;;0.20;0.20;;;20.10;69.40;;;;;;4949491;28;20051;-58
2022/10/15 04:04:01;;;;;;;0.47;0.40;;;20.00;69.40;;;;;;4952011;28;20529;-51
2022/10/15 04:06:27;;;;;;;0.47;0.40;;;20.10;69.40;;;;;;4953996;28;20069;-58
2022/10/15 04:08:52;;;;;;;0.28;0.25;;;20.10;69.40;;;;;;4954864;28;20046;-50
2022/10/15 04:11:18;;;;;;;0.35;0.35;;;20.00;69.50;;;;;;4954552;28;20078;-54
2022/10/15 04:13:48;;;;;;;0.20;0.20;;;20.00;69.60;;;;;;4954707;28;20134;-59
2022/10/15 04:16:13;;;;;;;0.40;0.40;;;20.00;69.50;;;;;;4951801;28;20039;-61
2022/10/15 04:18:39;;;;;;;0.30;0.30;;;20.10;69.10;;;;;;4952571;28;20058;-57
2022/10/15 04:21:04;;;;;;;0.50;0.30;;;20.10;69.20;;;;;;4951693;28;20146;-57
2022/10/15 04:23:30;;;;;;;0.40;0.30;;;20.10;69.20;;;;;;4951291;28;20545;-56
2022/10/15 04:25:59;;;;;;;0.40;0.30;;;20.00;69.90;;;;;;4951439;28;20142;-59
2022/10/15 04:28:24;;;;;;;0.20;0.20;;;20.10;69.20;;;;;;4954083;28;20051;-56
2022/10/15 04:30:50;;;;;;;0.30;0.30;;;20.10;70.00;;;;;;4954518;28;20737;-61
2022/10/15 04:33:15;;;;;;;0.20;0.20;;;20.00;69.20;;;;;;4951442;28;20048;-34
2022/10/15 04:35:41;;;;;;;0.22;0.22;;;20.10;69.20;;;;;;4954713;28;20061;-61
2022/10/15 04:38:07;;;;;;;0.22;0.20;;;20.10;69.20;;;;;;4953824;28;20047;-59
2022/10/15 04:40:32;;;;;;;0.30;0.28;;;20.10;69.10;;;;;;4949462;28;20161;-53
2022/10/15 04:42:58;;;;;;;0.20;0.20;;;20.10;69.60;;;;;;4951628;28;20257;-60
2022/10/15 04:45:23;;;;;;;0.20;0.20;;;20.10;69.20;;;;;;4951329;28;20122;-59
2022/10/15 04:47:49;;;;;;;0.40;0.30;;;20.10;69.10;;;;;;4950044;28;20050;-51
2022/10/15 04:50:14;;;;;;;0.40;0.30;;;20.10;69.00;;;;;;4951004;28;20107;-55
2022/10/15 04:52:40;;;;;;;0.30;0.20;;;20.10;69.00;;;;;;4952394;28;20406;-54
2022/10/15 04:55:06;;;;;;;0.35;0.32;;;20.10;69.10;;;;;;4948783;28;20039;-58
2022/10/15 04:57:31;;;;;;;0.25;0.20;;;20.10;69.00;;;;;;4951505;28;20081;-53
2022/10/15 04:59:57;;;;;;;0.20;0.20;;;20.10;69.00;;;;;;4946975;28;20075;-53
2022/10/15 05:02:23;;;;;;;0.22;0.22;;;20.10;68.90;;;;;;4949208;28;20050;-49
2022/10/15 05:04:48;;;;;;;0.45;0.30;;;20.10;68.90;;;;;;4951003;28;20102;-51
2022/10/15 05:07:14;;;;;;;1.27;0.17;;;20.10;69.10;;;;;;4950474;28;20522;-49
2022/10/15 05:09:40;;;;;;;0.20;0.20;;;20.10;69.00;;;;;;4948278;28;20468;-60
2022/10/15 05:12:05;;;;;;;0.35;0.30;;;20.10;69.00;;;;;;4954028;28;20055;-61
2022/10/15 05:14:31;;;;;;;0.30;0.25;;;20.10;69.00;;;;;;4951850;28;20494;-54
2022/10/15 05:16:56;;;;;;;0.30;0.30;;;20.10;68.90;;;;;;4949333;28;20149;-57
2022/10/15 05:19:22;;;;;;;0.30;0.20;;;20.10;69.00;;;;;;4952560;28;20481;-59
2022/10/15 05:21:48;;;;;;;0.20;0.20;;;20.10;69.10;;;;;;4948032;28;20046;-57
2022/10/15 05:24:13;;;;;;;0.30;0.30;;;20.10;68.90;;;;;;4948375;28;20065;-57
2022/10/15 05:26:39;;;;;;;0.30;0.30;;;20.10;68.90;;;;;;4951220;28;20083;-52
2022/10/15 05:29:04;;;;;;;0.20;0.10;;;20.10;69.00;;;;;;4952296;28;20522;-60
2022/10/15 05:31:30;;;;;;;0.35;0.25;;;20.10;69.00;;;;;;4947961;28;20430;-57
2022/10/15 05:33:56;;;;;;;0.20;0.17;;;20.10;68.90;;;;;;4950876;28;20047;-46
2022/10/15 05:36:26;;;;;;;0.20;0.20;;;20.10;68.90;;;;;;4602701;28;10000590;-50
2022/10/15 05:38:54;;;;;;;0.25;0.20;;;20.10;68.90;;;;;;4948137;28;20043;-60
2022/10/15 05:41:19;;;;;;;0.20;0.20;;;20.10;69.70;;;;;;4949532;28;20050;-45
2022/10/15 05:43:46;;;;;;;0.13;0.13;;;20.10;68.90;;;;;;4950718;28;20051;-51
2022/10/15 05:46:12;;;;;;;0.15;0.15;;;20.10;68.80;;;;;;4948802;28;20081;-61
2022/10/15 05:48:37;;;;;;;0.22;0.17;;;20.10;68.90;;;;;;4947416;28;20137;-55
2022/10/15 05:51:07;;;;;;;0.20;0.20;;;20.10;69.00;;;;;;4950990;28;20046;-57
2022/10/15 05:53:32;;;;;;;0.20;0.20;;;20.10;69.10;;;;;;4950313;28;20396;-59
2022/10/15 05:55:58;;;;;;;0.10;0.10;;;20.10;69.20;;;;;;4949933;28;20642;-50
2022/10/15 05:58:27;;;;;;;0.22;0.22;;;20.10;69.00;;;;;;4951098;28;20035;-59
2022/10/15 06:00:54;;;;;;;0.68;0.20;;;20.10;69.00;;;;;;4949814;28;20043;-52
2022/10/15 06:03:19;;;;;;;0.22;0.20;;;20.10;69.80;;;;;;4953127;28;20393;-57
2022/10/15 06:05:45;;;;;;;0.20;0.10;;;20.10;69.10;;;;;;4954428;28;21342;-55
2022/10/15 06:08:10;;;;;;;0.10;0.10;;;20.10;69.00;;;;;;4954003;28;20454;-54
2022/10/15 06:10:36;;;;;;;0.10;0.10;;;20.10;69.00;;;;;;4954029;28;20106;-44
2022/10/15 06:13:03;;;;;;;0.30;0.30;;;20.10;68.90;;;;;;4950489;28;20043;-54
2022/10/15 06:15:28;;;;;;;0.20;0.20;;;20.10;68.90;;;;;;4948740;28;20046;-52
2022/10/15 06:17:54;;;;;;;0.10;0.10;;;20.10;69.00;;;;;;4954873;28;20437;-48
2022/10/15 06:20:19;;;;;;;0.10;0.10;;;20.10;68.90;;;;;;4959043;28;20039;-49
2022/10/15 06:22:45;;;;;;;0.10;0.10;;;20.20;69.50;;;;;;4958845;28;20151;-51
2022/10/15 06:25:10;;;;;;;0.10;0.10;;;20.10;68.70;;;;;;4958368;28;20047;-51
2022/10/15 06:27:36;;;;;;;0.25;0.25;;;20.10;69.50;;;;;;4955865;28;20051;-59
2022/10/15 06:30:01;;;;;;;0.20;0.20;;;20.10;68.70;;;;;;4951050;28;20493;-53
2022/10/15 06:32:27;;;;;;;0.10;0.10;;;20.10;68.80;;;;;;4954613;28;20414;-56
2022/10/15 06:34:53;;;;;;;0.20;0.20;;;20.10;68.60;;;;;;4957266;28;20043;-53
2022/10/15 06:37:18;;;;;;;0.10;0.10;;;20.10;68.80;;;;;;4959203;28;20047;-56
2022/10/15 06:39:45;;;;;;;0.20;0.20;;;20.10;68.60;;;;;;4952276;28;20094;-52
2022/10/15 06:42:11;;;;;;;0.10;0.10;;;20.10;68.70;;;;;;4953695;28;20042;-56
2022/10/15 06:44:37;;;;;;;0.20;0.20;;;20.10;69.40;;;;;;4959224;28;20401;-54
2022/10/15 06:47:02;;;;;;;0.10;0.10;;;20.10;68.60;;;;;;4951221;28;20412;-51
2022/10/15 06:49:28;;;;;;;0.10;0.10;;;20.10;68.80;;;;;;4949329;28;20035;-46
2022/10/15 06:51:53;;;;;;;0.10;0.10;;;20.10;69.00;;;;;;4955042;28;20125;-52
2022/10/15 06:54:19;;;;;;;0.00;0.00;;;20.10;69.20;;;;;;4957225;28;20114;-52
2022/10/15 06:56:44;;;;;;;0.08;0.08;;;20.00;69.10;;;;;;4958056;28;20111;-54
2022/10/15 06:59:10;;;;;;;0.30;0.20;;;20.10;69.30;;;;;;4959200;28;20039;-57
2022/10/15 07:01:36;;;;;;;0.10;0.10;;;20.00;69.20;;;;;;4957954;28;20035;-54
2022/10/15 07:04:01;;;;;;;0.15;0.15;;;20.10;68.80;;;;;;4956797;28;20070;-47
2022/10/15 07:06:27;;;;;;;0.40;0.30;;;20.00;68.80;;;;;;4957979;28;20031;-53
2022/10/15 07:08:52;;;;;;;0.30;0.20;;;20.10;69.10;;;;;;4959856;28;20133;-58
2022/10/15 07:11:18;;;;;;;0.20;0.10;;;20.00;68.80;;;;;;4956265;28;20082;-40
2022/10/15 07:13:43;;;;;;;0.10;0.10;;;20.00;68.70;;;;;;4954991;28;20413;-57
2022/10/15 07:16:10;;;;;;;0.13;0.13;;;20.10;68.90;;;;;;4957210;28;20490;-48
2022/10/15 07:18:36;;;;;;;0.20;0.10;;;20.00;69.10;;;;;;4956381;28;20582;-49
2022/10/15 07:21:03;;;;;;;0.17;0.10;;;20.00;69.30;;;;;;4957192;28;20126;-51
2022/10/15 07:23:28;;;;;;;1.83;0.20;;;19.90;69.20;;;;;;4958864;28;20093;-52
2022/10/15 07:25:56;;;;;;;0.22;0.22;;;19.90;69.30;;;;;;4951503;28;20047;-45
2022/10/15 07:28:22;;;;;;;0.30;0.10;;;19.90;69.20;;;;;;4962127;28;20044;-52
2022/10/15 07:30:47;;;;;;;0.10;0.10;;;19.90;69.20;;;;;;4954064;28;20521;-57
2022/10/15 07:33:13;;;;;;;0.10;0.10;;;20.00;69.20;;;;;;4947174;28;20414;-50
2022/10/15 07:35:39;;;;;;;0.03;0.03;;;20.00;69.30;;;;;;4953857;28;20162;-47
2022/10/15 07:38:04;;;;;;;0.20;0.20;;;20.00;69.50;;;;;;4957056;28;20097;-53
2022/10/15 07:40:30;;;;;;;0.20;0.10;;;20.00;70.10;;;;;;4956066;28;20560;-55
2022/10/15 07:42:56;;;;;;;0.00;0.00;;;20.00;69.50;;;;;;4958081;28;20040;-44
2022/10/15 07:45:22;;;;;;;0.40;0.10;;;20.00;69.10;;;;;;4960980;28;20054;-58
2022/10/15 07:47:47;;;;;;;1.52;0.17;;;20.00;69.40;;;;;;4949691;28;20465;-42
2022/10/15 07:50:13;;;;;;;0.00;0.00;;;20.00;69.10;;;;;;4955171;28;20054;-49
2022/10/15 07:52:39;;;;;;;0.60;0.08;;;20.00;69.00;;;;;;4959786;28;20123;-58
2022/10/15 07:55:04;;;;;;;0.15;0.10;;;20.00;69.00;;;;;;4962962;28;20130;-57
2022/10/15 07:57:30;;;;;;;0.10;0.10;;;20.10;69.20;;;;;;4957546;28;20101;-55
2022/10/15 07:59:56;;;;;;;0.10;0.10;;;20.00;69.20;;;;;;4955631;28;20023;-51
2022/10/15 08:02:21;;;;;;;0.10;0.10;;;20.00;69.70;;;;;;4963464;28;20046;-57
2022/10/15 08:04:47;;;;;;;0.10;0.10;;;20.00;69.60;;;;;;4963141;28;20051;-54
2022/10/15 08:07:12;;;;;;;0.10;0.05;;;19.90;69.60;;;;;;4962635;28;20047;-57
2022/10/15 08:09:38;;;;;;;0.10;0.10;;;19.90;69.80;;;;;;4958392;28;20409;-54
2022/10/15 08:12:05;;;;;;;1.55;0.10;;;19.90;69.70;;;;;;4960411;28;20050;-47
2022/10/15 08:14:31;;;;;;;0.30;0.10;;;19.90;69.70;;;;;;4956655;28;20493;-56
2022/10/15 08:16:57;;;;;;;0.10;0.10;;;19.80;69.60;;;;;;4961668;28;20047;-46
2022/10/15 08:19:23;;;;;;;0.08;0.03;;;19.90;69.50;;;;;;4958403;28;21167;-54
2022/10/15 08:21:48;;;;;;;0.15;0.15;;;19.90;69.50;;;;;;4961193;28;23483;-50
2022/10/15 08:24:14;;;;;;;0.10;0.00;;;19.90;69.50;;;;;;4960429;28;20047;-52
2022/10/15 08:26:39;;;;;;;0.10;0.00;;;19.90;69.50;;;;;;4955863;28;20039;-43
2022/10/15 08:29:05;;;;;;;0.00;0.00;;;19.90;69.30;;;;;;4961444;28;20054;-58
2022/10/15 08:31:30;;;;;;;0.38;0.20;;;19.90;69.20;;;;;;4958626;28;21758;-43
2022/10/15 08:33:59;;;;;;;0.00;0.00;;;19.90;69.10;;;;;;4961840;28;20413;-53
2022/10/15 08:36:24;;;;;;;0.10;0.00;;;19.90;69.10;;;;;;4962935;28;20042;-45
2022/10/15 08:38:50;;;;;;;0.05;0.05;;;20.00;68.90;;;;;;4958983;28;20047;-42
2022/10/15 08:41:23;;;;;;;0.00;0.00;;;20.00;68.90;;;;;;4963425;28;20090;-55
2022/10/15 08:43:49;;;;;;;0.10;0.10;;;20.00;68.90;;;;;;4959759;28;20106;-44
2022/10/15 08:46:35;;;;;;;0.00;0.00;;;20.00;68.90;;;;;;4964202;28;20486;-51
2022/10/15 08:49:00;;;;;;;0.00;0.00;;;20.00;68.70;;;;;;4975208;28;20035;-50
2022/10/15 08:51:33;;;;;;;0.20;0.20;;;20.10;68.50;;;;;;4959758;28;20517;-52
2022/10/15 08:54:00;;;;;;;0.10;0.10;;;20.10;68.40;;;;;;4951344;28;20062;-43
2022/10/15 08:56:29;;;;;;;0.43;0.10;;;20.20;68.40;;;;;;4976321;28;20075;-53
2022/10/15 08:59:01;;;;;;;0.10;0.10;;;20.20;68.00;;;;;;4956370;28;20497;-52
2022/10/15 09:01:48;;;;;;;0.10;0.00;;;20.20;68.00;;;;;;4957422;28;20117;-55
2022/10/15 09:04:20;;;;;;;0.00;0.00;;;20.20;68.20;;;;;;4968652;28;20050;-49
2022/10/15 09:06:46;;;;;;;0.00;0.00;;;20.20;68.00;;;;;;4959716;28;20081;-57
2022/10/15 09:09:47;;;;;;;0.00;0.00;;;20.20;68.10;;;;;;4951441;28;20142;-55
2022/10/15 09:12:58;;;;;;;0.00;0.00;;;20.10;68.30;;;;;;4951121;28;20043;-59
2022/10/15 09:15:23;;;;;;;0.20;0.10;;;20.10;68.10;;;;;;4941236;28;20305;-53
2022/10/15 09:17:50;;;;;;;1.23;0.20;;;20.10;68.50;;;;;;4961783;28;20621;-59
2022/10/15 09:20:18;;;;;;;0.00;0.00;;;20.10;68.50;;;;;;4943591;28;20051;-53
2022/10/15 09:22:43;;;;;;;0.10;0.10;;;20.10;68.40;;;;;;4956855;28;20055;-58
2022/10/15 09:25:19;;;;;;;0.15;0.15;;;20.10;68.40;;;;;;4616371;28;9999812;-59
2022/10/15 09:27:46;;;;;;;0.32;0.10;;;20.20;68.20;;;;;;4980154;28;20046;-59
2022/10/15 09:30:33;;;;;;;0.10;0.10;;;20.10;68.30;;;;;;4964865;28;20051;-59
2022/10/15 09:33:05;;;;;;;0.00;0.00;;;20.20;68.40;;;;;;4964922;28;20047;-55
2022/10/15 09:35:42;;;;;;;1.27;0.10;;;20.10;68.20;;;;;;4973026;28;20035;-56
2022/10/15 09:38:13;;;;;;;0.10;0.10;;;20.20;68.40;;;;;;4971801;28;20103;-53
2022/10/15 09:40:53;;;;;;;0.80;0.20;;;20.20;68.20;;;;;;4953566;28;20046;-49
2022/10/15 09:43:26;;;;;;;0.17;0.10;;;20.20;68.30;;;;;;4953495;28;20555;-55
2022/10/15 09:45:52;;;;;;;0.00;0.00;;;20.20;68.10;;;;;;4965502;28;20122;-57
2022/10/15 09:48:18;;;;;;;0.00;0.00;;;20.20;68.00;;;;;;4952035;28;20058;-48
2022/10/15 09:50:49;;;;;;;0.10;0.10;;;20.20;68.10;;;;;;4931499;28;20054;-44
2022/10/15 09:53:55;;;;;;;0.00;0.00;;;20.30;68.10;;;;;;4965420;28;20629;-44
2022/10/15 09:56:27;;;;;;;0.10;0.10;;;20.30;68.20;;;;;;4933029;28;20669;-45
2022/10/15 09:58:56;;;;;;;0.10;0.00;;;20.20;68.20;;;;;;4963847;28;20051;-44
2022/10/15 10:01:23;;;;;;;0.05;0.00;;;20.20;68.40;;;;;;4605090;28;9999819;-44
2022/10/15 10:04:13;;;;;;;0.10;0.10;;;20.30;68.40;;;;;;4952212;28;20134;-54
2022/10/15 10:06:52;;;;;;;0.10;0.10;;;20.20;68.50;;;;;;4948097;28;20047;-54
2022/10/15 10:09:20;;;;;;;0.32;0.08;;;20.20;68.60;;;;;;4961897;28;20049;-52
2022/10/15 10:11:53;;;;;;;0.00;0.00;;;20.20;68.70;;;;;;4952900;28;20048;-54
2022/10/15 10:14:30;;;;;;;0.13;0.13;;;20.20;68.40;;;;;;4950394;28;20047;-46
2022/10/15 10:17:19;;;;;;;0.30;0.10;;;20.20;68.70;;;;;;4950672;28;20059;-43
2022/10/15 10:19:45;;;;;;;0.10;0.10;;;20.20;68.60;;;;;;4949848;28;20038;-59
2022/10/15 10:22:18;;;;;;;0.05;0.05;;;20.20;68.70;;;;;;4950624;28;20511;-57
2022/10/15 10:24:47;;;;;;;0.03;0.00;;;20.20;68.60;;;;;;4965396;28;20066;-55
2022/10/15 10:27:28;;;;;;;0.00;0.00;;;20.20;68.70;;;;;;4978977;28;20062;-59
2022/10/15 10:30:01;;;;;;;0.03;0.00;;;20.20;68.70;;;;;;4946027;28;20061;-58
2022/10/15 10:32:31;;;;;;;0.13;0.00;;;20.20;68.50;;;;;;4948196;28;20038;-53
2022/10/15 10:34:57;;;;;;;0.05;0.05;;;20.30;68.50;;;;;;4976889;28;20835;-51
2022/10/15 10:37:23;;;;;;;0.20;0.10;;;20.30;68.30;;;;;;4966948;28;20027;-56
2022/10/15 10:39:55;;;;;;;0.00;0.00;;;20.40;68.10;;;;;;4963925;28;20051;-60
2022/10/15 10:42:31;;;;;;;0.00;0.00;;;20.50;67.70;;;;;;4951507;28;20039;-54
2022/10/15 10:45:19;;;;;;;0.00;0.00;;;20.40;68.20;;;;;;4947088;28;20131;-59
2022/10/15 10:47:45;;;;;;;0.00;0.00;;;20.40;68.20;;;;;;4952795;28;20050;-59
2022/10/15 10:50:28;;;;;;;0.28;0.10;;;20.40;68.20;;;;;;4961886;28;20051;-58
2022/10/15 10:52:54;;;;;;;0.00;0.00;;;20.40;68.30;;;;;;4954761;28;20051;-56
2022/10/15 10:55:23;;;;;;;0.00;0.00;;;20.40;68.20;;;;;;4953456;28;20118;-58
2022/10/15 10:58:01;;;;;;;0.00;0.00;;;20.40;68.00;;;;;;4953494;28;20108;-51
2022/10/15 11:00:40;;;;;;;0.10;0.00;;;20.40;67.80;;;;;;4953860;28;20516;-54
2022/10/15 11:03:20;;;;;;;0.00;0.00;;;20.40;68.20;;;;;;4948793;28;20043;-57
2022/10/15 11:05:46;;;;;;;0.00;0.00;;;20.30;68.40;;;;;;4983801;28;20506;-60
2022/10/15 11:08:39;;;;;;;1.10;0.10;;;20.40;68.20;;;;;;4973488;28;20047;-57
2022/10/15 11:11:23;;;;;;;0.08;0.03;;;20.30;68.30;;;;;;4959678;28;20051;-57
2022/10/15 11:14:04;;;;;;;0.00;0.00;;;20.40;68.30;;;;;;4959202;28;20547;-52
2022/10/15 11:16:42;;;;;;;0.13;0.00;;;20.40;68.20;;;;;;4956711;28;20090;-52
2022/10/15 11:19:15;;;;;;;0.00;0.00;;;20.40;68.10;;;;;;4987360;28;20127;-57
2022/10/15 11:22:16;;;;;;;0.00;0.00;;;20.50;67.80;;;;;;4954534;28;20035;-59
2022/10/15 11:24:48;;;;;;;0.10;0.10;;;20.60;67.50;;;;;;4951388;28;20051;-55
2022/10/15 11:27:35;;;;;;;0.22;0.10;;;20.50;67.80;;;;;;4958332;28;20110;-57
2022/10/15 11:30:33;;;;;;;0.20;0.00;;;20.70;67.10;;;;;;4955815;28;20047;-57
2022/10/15 11:33:06;;;;;;;0.10;0.00;;;20.70;67.30;;;;;;4941248;28;20059;-57
2022/10/15 11:35:53;;;;;;;0.00;0.00;;;20.50;67.50;;;;;;4953298;28;20046;-60
2022/10/15 11:38:37;;;;;;;0.00;0.00;;;20.50;67.80;;;;;;4959006;28;20046;-43
2022/10/15 11:41:09;;;;;;;0.17;0.00;;;20.50;68.00;;;;;;4957323;28;20101;-45
2022/10/15 11:44:12;;;;;;;0.00;0.00;;;20.50;67.80;;;;;;4960067;28;20046;-44
2022/10/15 11:47:05;;;;;;;0.20;0.10;;;20.50;67.90;;;;;;4933046;28;20055;-44
2022/10/15 11:49:44;;;;;;;0.13;0.10;;;20.50;67.80;;;;;;4956051;28;20102;-43
2022/10/15 11:52:19;;;;;;;0.05;0.00;;;20.50;67.90;;;;;;4955633;28;20095;-45
2022/10/15 11:54:46;;;;;;;0.00;0.00;;;20.50;68.10;;;;;;4978038;28;20043;-56
2022/10/15 11:57:14;;;;;;;0.52;0.00;;;20.50;68.00;;;;;;4958353;28;20047;-49
2022/10/15 11:59:50;;;;;;;0.10;0.10;;;20.50;67.80;;;;;;4966600;28;20051;-43
2022/10/15 12:02:33;;;;;;;0.00;0.00;;;20.50;67.80;;;;;;4955781;28;20113;-38
2022/10/15 12:05:00;;;;;;;0.00;0.00;;;20.50;67.70;;;;;;4942993;28;20548;-42
2022/10/15 12:07:29;;;;;;;0.10;0.00;;;20.50;67.70;;;;;;4953383;28;20047;-40
2022/10/15 12:10:04;;;;;;;0.10;0.08;;;20.50;67.40;;;;;;4968467;28;20035;-59
2022/10/15 12:12:49;;;;;;;0.00;0.00;;;20.50;67.60;;;;;;4970053;28;20073;-56
2022/10/15 12:15:27;;;;;;;0.03;0.00;;;20.50;67.70;;;;;;4956093;28;20038;-54
2022/10/15 12:18:23;;;;;;;0.10;0.00;;;20.50;67.70;;;;;;4954432;28;20085;-47
2022/10/15 12:20:48;;;;;;;0.03;0.00;;;20.50;67.60;;;;;;4951998;28;20038;-52
2022/10/15 12:23:36;;;;;;;0.00;0.00;;;20.60;67.50;;;;;;4951910;28;20760;-53
2022/10/15 12:26:27;;;;;;;0.10;0.10;;;20.60;67.60;;;;;;4757413;28;10000676;-54
2022/10/15 12:28:54;;;;;;;0.10;0.10;;;20.50;67.70;;;;;;4936224;28;21067;-50
2022/10/15 12:31:20;;;;;;;0.00;0.00;;;20.60;67.40;;;;;;4971237;28;20031;-56
2022/10/15 12:33:49;;;;;;;0.00;0.00;;;20.60;67.40;;;;;;4981114;28;20537;-14
2022/10/15 12:36:18;;;;;;;0.00;0.00;;;20.70;67.20;;;;;;4953481;28;20042;-16
2022/10/15 12:38:57;;;;;;;0.20;0.00;;;21.00;66.30;;;;;;4950458;28;20581;-14
2022/10/15 12:41:40;;;;;;;0.20;0.20;;;21.00;65.90;;;;;;4952591;28;20095;-15
2022/10/15 12:44:25;;;;;;;0.00;0.00;;;21.10;66.10;;;;;;4928362;28;20055;-8
2022/10/15 12:46:50;;;;;;;0.05;0.00;;;21.00;66.00;;;;;;4965536;28;20042;-9
2022/10/15 12:49:25;;;;;;;0.00;0.00;;;21.00;67.10;;;;;;4953422;28;20043;-14
2022/10/15 12:51:51;;;;;;;0.20;0.10;;;21.00;66.50;;;;;;4951137;28;20479;-12
2022/10/15 12:54:41;;;;;;;0.00;0.00;;;20.80;67.10;;;;;;4955334;28;20122;-20
2022/10/15 12:57:35;;;;;;;0.00;0.00;;;20.80;67.50;;;;;;4954218;28;20118;-10
2022/10/15 13:00:23;;;;;;;0.05;0.03;;;20.70;67.60;;;;;;4951763;28;20032;-10
2022/10/15 13:02:48;;;;;;;0.10;0.10;;;20.70;67.80;;;;;;4950450;28;20043;-10